createdAt,value
2022-12-25T00:03:05.452Z,8.70
2022-12-25T00:08:10.632Z,8.70
2022-12-25T00:13:13.737Z,8.70
2022-12-25T00:18:15.443Z,8.70
2022-12-25T00:23:17.185Z,8.60
2022-12-25T00:28:21.083Z,8.50
2022-12-25T00:33:22.786Z,8.50
2022-12-25T00:38:24.521Z,8.40
2022-12-25T00:43:27.655Z,8.40
2022-12-25T00:48:30.348Z,8.30
2022-12-25T00:53:32.163Z,8.30
2022-12-25T00:58:35.901Z,8.30
2022-12-25T01:03:37.833Z,8.30
2022-12-25T01:08:41.346Z,8.30
2022-12-25T01:14:07.574Z,8.30
2022-12-25T01:19:09.871Z,8.40
2022-12-25T01:24:11.605Z,8.50
2022-12-25T01:29:14.808Z,8.50
2022-12-25T01:34:16.577Z,8.50
2022-12-25T01:39:18.382Z,8.60
2022-12-25T01:44:57.680Z,8.60
2022-12-25T01:50:00.807Z,8.70
2022-12-25T01:55:04.161Z,8.70
2022-12-25T02:00:08.065Z,8.60
2022-12-25T02:05:15.706Z,8.50
2022-12-25T02:10:17.940Z,8.40
2022-12-25T02:15:22.553Z,8.50
2022-12-25T02:20:43.372Z,8.40
2022-12-25T02:26:01.443Z,8.40
2022-12-25T02:31:11.414Z,8.30
2022-12-25T02:36:20.147Z,8.30
2022-12-25T02:41:22.320Z,8.30
2022-12-25T02:46:28.347Z,8.30
2022-12-25T02:51:34.494Z,8.30
2022-12-25T02:56:37.912Z,8.30
2022-12-25T03:01:42.495Z,8.40
2022-12-25T03:06:59.507Z,8.30
2022-12-25T03:12:08.088Z,8.30
2022-12-25T03:17:11.362Z,8.20
2022-12-25T03:22:19.089Z,8.40
2022-12-25T03:27:20.895Z,8.40
2022-12-25T03:32:33.703Z,8.50
2022-12-25T03:37:45.345Z,8.50
2022-12-25T03:42:54.646Z,8.40
2022-12-25T03:47:58.375Z,8.30
2022-12-25T03:53:03.751Z,8.20
2022-12-25T03:58:05.461Z,8.30
2022-12-25T04:03:08.597Z,8.30
2022-12-25T04:08:10.405Z,8.20
2022-12-25T04:13:15.006Z,8.20
2022-12-25T04:18:18.050Z,8.20
2022-12-25T04:23:19.844Z,8.20
2022-12-25T04:28:21.604Z,8.20
2022-12-25T04:33:24.663Z,8.20
2022-12-25T04:38:26.409Z,8.10
2022-12-25T04:43:28.180Z,8.10
2022-12-25T04:48:33.958Z,8.10
2022-12-25T04:53:35.642Z,8.00
2022-12-25T04:58:37.663Z,8.00
2022-12-25T05:03:41.057Z,8.00
2022-12-25T05:08:42.848Z,8.10
2022-12-25T05:13:44.903Z,8.00
2022-12-25T05:18:50.541Z,8.00
2022-12-25T05:23:53.091Z,7.90
2022-12-25T05:28:55.095Z,7.80
2022-12-25T05:33:58.222Z,7.70
2022-12-25T05:38:59.892Z,7.70
2022-12-25T05:44:01.737Z,7.80
2022-12-25T05:49:04.817Z,7.70
2022-12-25T05:54:06.546Z,7.60
2022-12-25T05:59:08.387Z,7.50
2022-12-25T06:04:12.895Z,7.50
2022-12-25T06:09:14.936Z,7.60
2022-12-25T06:14:16.970Z,7.50
2022-12-25T06:19:20.532Z,7.60
2022-12-25T06:24:22.546Z,7.60
2022-12-25T06:29:24.421Z,7.60
2022-12-25T06:34:27.857Z,7.80
2022-12-25T06:39:29.957Z,7.90
2022-12-25T06:44:31.699Z,8.10
2022-12-25T06:49:35.782Z,8.30
2022-12-25T06:54:37.487Z,8.30
2022-12-25T06:59:39.192Z,8.30
2022-12-25T07:04:43.025Z,8.20
2022-12-25T07:09:44.783Z,8.20
2022-12-25T07:14:47.310Z,8.10
2022-12-25T07:19:50.473Z,8.00
2022-12-25T07:24:52.272Z,8.30
2022-12-25T07:29:54.066Z,8.40
2022-12-25T07:34:57.221Z,8.40
2022-12-25T07:39:59.011Z,8.40
2022-12-25T07:45:00.742Z,8.40
2022-12-25T07:50:04.667Z,8.30
2022-12-25T07:55:06.751Z,8.20
2022-12-25T08:00:09.769Z,8.40
2022-12-25T08:05:12.846Z,8.30
2022-12-25T08:10:14.637Z,8.30
2022-12-25T08:15:16.437Z,8.30
2022-12-25T08:20:19.543Z,8.30
2022-12-25T08:25:21.386Z,8.20
2022-12-25T08:30:23.148Z,8.40
2022-12-25T08:35:26.444Z,8.50
2022-12-25T08:40:28.239Z,8.70
2022-12-25T08:45:34.955Z,8.70
2022-12-25T08:50:38.632Z,8.70
2022-12-25T08:55:40.389Z,8.50
2022-12-25T09:00:42.473Z,8.50
2022-12-25T09:05:45.599Z,8.60
2022-12-25T09:10:47.417Z,8.60
2022-12-25T09:15:49.200Z,8.60
2022-12-25T09:20:58.995Z,8.50
2022-12-25T09:26:01.996Z,8.40
2022-12-25T09:31:05.347Z,8.40
2022-12-25T09:36:10.420Z,8.40
2022-12-25T09:41:17.195Z,8.50
2022-12-25T09:46:24.812Z,8.70
2022-12-25T09:51:30.051Z,8.90
2022-12-25T09:56:32.147Z,8.80
2022-12-25T10:01:41.100Z,8.90
2022-12-25T10:06:54.601Z,9.00
2022-12-25T10:12:12.565Z,9.10
2022-12-25T10:17:32.620Z,9.40
2022-12-25T10:22:40.442Z,9.50
2022-12-25T10:27:43.051Z,9.70
2022-12-25T10:32:45.891Z,10.00
2022-12-25T10:38:00.850Z,10.00
2022-12-25T10:43:11.135Z,10.10
2022-12-25T10:48:21.505Z,10.00
2022-12-25T10:53:26.332Z,9.90
2022-12-25T10:58:28.870Z,10.00
2022-12-25T11:03:32.672Z,10.10
2022-12-25T11:08:35.803Z,10.10
2022-12-25T11:13:47.321Z,10.10
2022-12-25T11:18:51.294Z,10.10
2022-12-25T11:23:58.931Z,10.10
2022-12-25T11:29:01.016Z,9.90
2022-12-25T11:34:07.488Z,9.90
2022-12-25T11:39:19.881Z,9.90
2022-12-25T11:44:32.931Z,9.90
2022-12-25T11:49:45.858Z,9.90
2022-12-25T11:54:58.035Z,10.00
2022-12-25T12:00:02.726Z,10.10
2022-12-25T12:05:14.668Z,10.30
2022-12-25T12:10:22.858Z,10.50
2022-12-25T12:15:29.508Z,10.60
2022-12-25T12:20:33.678Z,10.70
2022-12-25T12:25:41.395Z,10.80
2022-12-25T12:30:43.718Z,10.70
2022-12-25T12:35:45.809Z,10.80
2022-12-25T12:40:55.015Z,10.90
2022-12-25T12:46:01.324Z,11.20
2022-12-25T12:51:05.625Z,11.70
2022-12-25T12:56:15.057Z,12.30
2022-12-25T13:01:39.600Z,12.80
2022-12-25T13:06:45.089Z,13.10
2022-12-25T13:11:49.858Z,13.20
2022-12-25T13:16:53.206Z,13.10
2022-12-25T13:21:56.389Z,12.70
2022-12-25T13:27:00.284Z,12.30
2022-12-25T13:32:04.061Z,12.00
2022-12-25T13:37:08.685Z,11.80
2022-12-25T13:42:16.663Z,11.60
2022-12-25T13:47:22.359Z,11.40
2022-12-25T13:52:31.744Z,11.40
2022-12-25T13:57:37.471Z,11.40
2022-12-25T14:02:39.547Z,11.30
2022-12-25T14:07:41.864Z,11.20
2022-12-25T14:12:45.420Z,11.10
2022-12-25T14:17:47.804Z,11.00
2022-12-25T14:22:51.139Z,10.90
2022-12-25T14:27:54.270Z,10.80
2022-12-25T14:32:56.842Z,10.80
2022-12-25T14:38:00.221Z,10.70
2022-12-25T14:43:05.349Z,10.50
2022-12-25T14:48:22.889Z,10.50
2022-12-25T14:53:34.870Z,10.40
2022-12-25T14:58:43.278Z,10.10
2022-12-25T15:03:45.035Z,9.90
2022-12-25T15:08:55.808Z,9.80
2022-12-25T15:13:59.329Z,9.70
2022-12-25T15:19:01.057Z,9.70
2022-12-25T15:24:03.213Z,9.60
2022-12-25T15:29:06.552Z,9.40
2022-12-25T15:34:17.349Z,9.30
2022-12-25T15:39:19.083Z,9.10
2022-12-25T15:44:22.883Z,9.00
2022-12-25T15:49:24.584Z,8.90
2022-12-25T15:54:26.304Z,8.90
2022-12-25T15:59:29.843Z,8.80
2022-12-25T16:04:31.605Z,8.90
2022-12-25T16:09:33.258Z,8.80
2022-12-25T16:14:36.513Z,8.80
2022-12-25T16:19:38.249Z,8.80
2022-12-25T16:24:40.039Z,8.70
2022-12-25T16:29:43.139Z,8.60
2022-12-25T16:34:44.822Z,8.50
2022-12-25T16:39:46.614Z,8.40
2022-12-25T16:44:49.648Z,8.30
2022-12-25T16:49:51.326Z,8.20
2022-12-25T16:54:53.024Z,8.10
2022-12-25T16:59:56.092Z,8.00
2022-12-25T17:05:00.722Z,8.10
2022-12-25T17:10:03.025Z,8.40
2022-12-25T17:15:07.108Z,8.60
2022-12-25T17:20:09.515Z,8.90
2022-12-25T17:25:11.251Z,9.10
2022-12-25T17:30:14.558Z,9.10
2022-12-25T17:35:16.411Z,9.00
2022-12-25T17:40:18.540Z,9.00
2022-12-25T17:45:21.743Z,9.10
2022-12-25T17:50:23.848Z,9.00
2022-12-25T17:55:25.698Z,9.00
2022-12-25T18:00:28.779Z,9.10
2022-12-25T18:05:30.510Z,9.40
2022-12-25T18:10:37.132Z,9.70
2022-12-25T18:15:41.224Z,9.90
2022-12-25T18:20:42.949Z,10.10
2022-12-25T18:25:44.644Z,10.30
2022-12-25T18:30:48.655Z,10.40
2022-12-25T18:35:50.601Z,10.40
2022-12-25T18:40:52.414Z,10.50
2022-12-25T18:45:59.431Z,10.50
2022-12-25T18:51:03.230Z,10.40
2022-12-25T18:56:07.593Z,10.40
2022-12-25T19:01:16.865Z,10.30
2022-12-25T19:06:19.594Z,10.30
2022-12-25T19:11:22.527Z,10.30
2022-12-25T19:16:25.840Z,10.30
2022-12-25T19:21:27.687Z,10.20
2022-12-25T19:26:29.481Z,10.10
2022-12-25T19:31:32.627Z,10.10
2022-12-25T19:36:34.881Z,10.00
2022-12-25T19:41:36.938Z,10.00
2022-12-25T19:46:41.265Z,10.00
2022-12-25T19:51:45.580Z,9.90
2022-12-25T19:56:48.186Z,9.90
2022-12-25T20:01:51.495Z,9.90
2022-12-25T20:06:53.413Z,10.10
2022-12-25T20:11:55.189Z,10.10
2022-12-25T20:16:58.344Z,10.20
2022-12-25T20:22:00.227Z,10.10
2022-12-25T20:27:02.016Z,10.30
2022-12-25T20:32:05.430Z,10.30
2022-12-25T20:37:07.235Z,10.40
2022-12-25T20:42:08.985Z,10.40
2022-12-25T20:47:12.072Z,10.50
2022-12-25T20:52:13.806Z,10.60
2022-12-25T20:57:15.562Z,10.60
2022-12-25T21:02:33.640Z,10.60
2022-12-25T21:07:37.140Z,10.60
2022-12-25T21:12:38.909Z,10.50
2022-12-25T21:17:42.214Z,10.60
2022-12-25T21:22:43.973Z,10.50
2022-12-25T21:27:45.712Z,10.50
2022-12-25T21:32:48.836Z,10.50
2022-12-25T21:37:51.053Z,10.40
2022-12-25T21:42:58.730Z,10.40
2022-12-25T21:48:03.566Z,10.50
2022-12-25T21:53:06.173Z,10.50
2022-12-25T21:58:08.453Z,10.40
2022-12-25T22:03:11.961Z,10.40
2022-12-25T22:08:13.799Z,10.40
2022-12-25T22:13:19.830Z,10.30
2022-12-25T22:18:23.202Z,10.40
2022-12-25T22:23:24.957Z,10.50
2022-12-25T22:28:26.661Z,10.50
2022-12-25T22:33:33.406Z,10.50
2022-12-25T22:38:35.170Z,10.50
2022-12-25T22:44:14.640Z,10.60
2022-12-25T22:49:00.000Z,10.60
2022-12-25T22:54:03.823Z,10.70
2022-12-25T22:59:05.884Z,10.70
2022-12-25T23:04:09.454Z,10.70
2022-12-25T23:09:18.855Z,10.60
2022-12-25T23:14:24.649Z,10.60
2022-12-25T23:19:27.770Z,10.70
2022-12-25T23:24:29.499Z,10.80
2022-12-25T23:29:31.196Z,10.80
2022-12-25T23:34:36.451Z,10.80
2022-12-25T23:39:38.921Z,10.80
2022-12-25T23:44:40.781Z,10.80
2022-12-25T23:49:47.197Z,10.60
2022-12-25T23:54:48.981Z,10.50
2022-12-25T23:59:50.731Z,10.50
